Time;durP1;ratioP1;P1;durP2;ratioP2;P2;SDS_P1;SDS_P2;PMS_P1;PMS_P2;Temp;Humidity;BMP_temperature;BMP_pressure;BME280_temperature;BME280_humidity;BME280_pressure;Samples;Min_cycle;Max_cycle;Signal;HPM_P1;HPM_P2
2024/01/24 00:01:00;;;;;;;5.67;3.93;;;;;;;2.37;100.00;99999.00;5041492;28;20047;-70
2024/01/24 00:03:25;;;;;;;9.73;4.10;;;;;;;2.44;100.00;99998.34;5036155;28;20292;-65
2024/01/24 00:05:51;;;;;;;6.27;3.80;;;;;;;2.45;100.00;100005.28;5037113;28;20037;-69
2024/01/24 00:08:16;;;;;;;7.77;3.77;;;;;;;2.45;100.00;99997.41;5035396;28;20429;-69
2024/01/24 00:10:42;;;;;;;9.87;4.33;;;;;;;2.29;100.00;99964.66;5035417;28;20504;-68
2024/01/24 00:13:07;;;;;;;9.87;4.30;;;;;;;2.47;100.00;99997.25;5040937;28;20171;-68
2024/01/24 00:15:33;;;;;;;12.70;4.53;;;;;;;2.45;100.00;100000.03;5047711;28;20082;-66
2024/01/24 00:17:58;;;;;;;11.37;4.30;;;;;;;2.33;100.00;99987.09;5039218;28;20049;-69
2024/01/24 00:20:24;;;;;;;7.93;4.27;;;;;;;2.43;100.00;100001.94;5038459;28;20041;-67
2024/01/24 00:22:49;;;;;;;8.07;3.77;;;;;;;2.44;100.00;100011.50;5043893;28;20041;-65
2024/01/24 00:25:15;;;;;;;5.03;3.53;;;;;;;2.42;100.00;99994.19;5038713;28;20454;-67
2024/01/24 00:27:40;;;;;;;6.60;3.60;;;;;;;2.35;100.00;99982.53;5046340;28;20044;-66
2024/01/24 00:30:07;;;;;;;8.47;4.17;;;;;;;2.47;100.00;100005.97;5039177;28;20041;-67
2024/01/24 00:32:32;;;;;;;7.00;3.90;;;;;;;2.44;100.00;99997.53;5045154;28;20051;-70
2024/01/24 00:34:58;;;;;;;9.70;4.00;;;;;;;2.48;100.00;100004.19;5038543;28;20643;-68
2024/01/24 00:37:23;;;;;;;6.40;3.97;;;;;;;2.18;100.00;99953.25;5047351;28;20048;-66
2024/01/24 00:39:49;;;;;;;11.63;4.00;;;;;;;2.41;100.00;99996.00;5042591;28;20415;-69
2024/01/24 00:42:14;;;;;;;10.53;4.20;;;;;;;1.73;100.00;99888.81;5038625;28;20068;-69
2024/01/24 00:44:40;;;;;;;6.30;3.43;;;;;;;2.28;100.00;99976.13;5041888;28;20045;-67
2024/01/24 00:47:06;;;;;;;6.33;3.40;;;;;;;2.36;100.00;99992.94;5040008;28;20045;-68
2024/01/24 00:49:31;;;;;;;3.50;2.80;;;;;;;2.22;100.00;99971.38;5038171;28;20053;-69
2024/01/24 00:51:57;;;;;;;6.13;3.00;;;;;;;2.18;100.00;99966.38;5039542;28;20738;-66
2024/01/24 00:54:22;;;;;;;6.40;3.33;;;;;;;2.18;100.00;99966.38;5038059;28;20045;-68
2024/01/24 00:56:48;;;;;;;4.77;2.60;;;;;;;2.23;100.00;99957.28;5036370;28;20052;-65
2024/01/24 00:59:13;;;;;;;4.17;2.80;;;;;;;2.25;100.00;99958.81;5044897;28;20121;-66
2024/01/24 01:01:39;;;;;;;6.37;2.90;;;;;;;2.36;100.00;99979.78;5037487;28;20065;-68
2024/01/24 01:04:04;;;;;;;5.20;3.23;;;;;;;2.23;100.00;99952.88;5039443;28;20052;-67
2024/01/24 01:06:30;;;;;;;3.27;2.63;;;;;;;2.40;100.00;99975.09;5041831;28;20037;-67
2024/01/24 01:08:55;;;;;;;4.27;3.00;;;;;;;2.40;100.00;99977.72;5042212;28;20053;-66
2024/01/24 01:11:21;;;;;;;6.50;3.43;;;;;;;2.05;100.00;99926.38;5037868;28;20029;-68
2024/01/24 01:13:48;;;;;;;6.50;3.00;;;;;;;2.33;100.00;99973.97;5039816;28;20103;-69
2024/01/24 01:16:13;;;;;;;3.97;3.00;;;;;;;2.34;100.00;99978.25;5042688;28;20037;-65
2024/01/24 01:18:39;;;;;;;5.67;3.13;;;;;;;2.26;100.00;99967.53;5042379;28;20307;-67
2024/01/24 01:21:08;;;;;;;5.30;3.33;;;;;;;2.28;100.00;99960.34;5042648;28;20058;-67
2024/01/24 01:23:33;;;;;;;4.80;3.07;;;;;;;2.28;100.00;99960.34;5038475;28;20676;-66
2024/01/24 01:25:58;;;;;;;4.43;3.07;;;;;;;2.10;100.00;99932.06;5041406;28;20458;-66
2024/01/24 01:28:24;;;;;;;6.77;4.03;;;;;;;2.22;100.00;99951.19;5048244;28;20206;-66
2024/01/24 01:30:49;;;;;;;3.80;3.17;;;;;;;2.10;100.00;99932.06;5043210;28;20045;-66
2024/01/24 01:33:15;;;;;;;5.17;3.27;;;;;;;2.25;100.00;99945.69;5037653;28;20399;-67
2024/01/24 01:35:40;;;;;;;3.97;2.50;;;;;;;2.24;100.00;99953.69;5042612;28;20063;-66
2024/01/24 01:38:06;;;;;;;5.03;3.33;;;;;;;2.26;100.00;99941.25;5039700;28;20045;-67
2024/01/24 01:40:31;;;;;;;4.60;2.83;;;;;;;2.01;100.00;99908.34;5037530;28;20072;-66
2024/01/24 01:42:57;;;;;;;4.33;2.67;;;;;;;2.17;100.00;99917.44;5036746;28;20041;-66
2024/01/24 01:45:23;;;;;;;5.57;3.20;;;;;;;2.30;100.00;99938.25;5038396;28;20029;-67
2024/01/24 01:47:50;;;;;;;4.40;2.90;;;;;;;2.17;100.00;99914.81;5039968;28;20065;-66
2024/01/24 01:50:17;;;;;;;3.90;2.80;;;;;;;2.25;100.00;99929.09;5039660;28;20045;-67
2024/01/24 01:52:43;;;;;;;7.20;3.13;;;;;;;2.34;100.00;99944.09;5037573;28;21030;-71
2024/01/24 01:55:11;;;;;;;7.47;2.83;;;;;;;1.98;100.00;99905.97;5045423;28;20303;-64
2024/01/24 01:57:39;;;;;;;3.97;2.90;;;;;;;2.35;100.00;99957.09;5037815;28;20370;-69
2024/01/24 02:00:05;;;;;;;3.07;2.43;;;;;;;2.32;100.00;99946.84;5040342;28;20371;-69
2024/01/24 02:02:31;;;;;;;6.73;3.33;;;;;;;2.26;100.00;99933.38;5041219;28;20275;-68
2024/01/24 02:04:57;;;;;;;4.00;2.50;;;;;;;2.31;100.00;99941.69;5036942;28;20275;-67
2024/01/24 02:07:24;;;;;;;2.57;2.37;;;;;;;2.34;100.00;99938.84;5035124;28;20061;-67
2024/01/24 02:09:49;;;;;;;3.13;2.60;;;;;;;2.20;100.00;99926.03;5039517;28;20033;-66
2024/01/24 02:12:16;;;;;;;4.93;3.33;;;;;;;2.29;100.00;99928.69;5043240;28;20830;-68
2024/01/24 02:14:41;;;;;;;4.07;2.80;;;;;;;2.23;100.00;99913.44;5040996;28;20052;-68
2024/01/24 02:17:07;;;;;;;3.07;2.63;;;;;;;2.34;100.00;99938.84;5038861;28;20654;-66
2024/01/24 02:19:33;;;;;;;3.70;2.43;;;;;;;2.25;100.00;99923.84;5036669;28;20049;-68
2024/01/24 02:21:59;;;;;;;3.30;2.70;;;;;;;2.32;100.00;99928.47;5040464;28;20639;-67
2024/01/24 02:24:24;;;;;;;3.17;2.80;;;;;;;2.01;100.00;99880.28;5038013;28;20041;-68
2024/01/24 02:26:50;;;;;;;3.20;2.37;;;;;;;2.12;100.00;99885.47;5041728;28;20041;-66
2024/01/24 02:29:16;;;;;;;4.57;2.80;;;;;;;2.03;100.00;99862.63;5040446;28;20523;-66
2024/01/24 02:31:41;;;;;;;2.93;2.63;;;;;;;2.17;100.00;99891.16;5039605;28;20063;-67
2024/01/24 02:34:06;;;;;;;3.47;2.60;;;;;;;2.36;100.00;99911.47;5038531;28;20052;-67
2024/01/24 02:36:32;;;;;;;3.17;2.50;;;;;;;2.36;100.00;99903.59;5042703;28;20053;-68
2024/01/24 02:38:57;;;;;;;4.17;2.63;;;;;;;2.40;100.00;99906.78;5035944;28;20121;-66
2024/01/24 02:41:23;;;;;;;4.57;2.73;;;;;;;2.38;100.00;99914.78;5044473;28;20037;-66
2024/01/24 02:43:48;;;;;;;4.23;2.47;;;;;;;2.30;100.00;99898.00;5043087;28;20514;-68
2024/01/24 02:46:14;;;;;;;3.53;2.70;;;;;;;2.33;100.00;99895.13;5041232;28;20053;-68
2024/01/24 02:48:40;;;;;;;4.30;2.83;;;;;;;2.32;100.00;99903.97;5040778;28;20051;-66
2024/01/24 02:51:05;;;;;;;2.60;2.40;;;;;;;2.29;100.00;99898.97;5037284;28;20044;-67
2024/01/24 02:53:31;;;;;;;3.73;2.30;;;;;;;2.30;100.00;99916.38;5042258;28;20133;-64
2024/01/24 02:55:57;;;;;;;3.37;2.57;;;;;;;2.06;100.00;99883.38;5044107;28;20488;-69
2024/01/24 02:58:22;;;;;;;6.27;3.07;;;;;;;1.69;100.00;99827.03;5038316;28;20072;-66
2024/01/24 03:00:48;;;;;;;3.03;2.73;;;;;;;2.16;100.00;99884.25;5040486;28;20072;-67
2024/01/24 03:03:13;;;;;;;5.10;2.50;;;;;;;2.21;100.00;99885.66;5043569;28;20485;-66
2024/01/24 03:05:38;;;;;;;4.70;2.70;;;;;;;2.34;100.00;99894.16;5052301;28;20041;-66
2024/01/24 03:08:04;;;;;;;5.80;2.77;;;;;;;2.39;100.00;99898.06;5053459;28;20049;-68
2024/01/24 03:10:30;;;;;;;4.73;2.87;;;;;;;2.36;100.00;99890.44;5048449;28;20041;-68
2024/01/24 03:12:55;;;;;;;3.40;2.63;;;;;;;2.29;100.00;99883.19;5041174;28;20492;-67
2024/01/24 03:15:21;;;;;;;6.17;3.37;;;;;;;2.41;100.00;99898.75;5039620;28;20048;-66
2024/01/24 03:17:47;;;;;;;3.37;2.87;;;;;;;2.38;100.00;99890.31;5044487;28;20168;-67
2024/01/24 03:20:16;;;;;;;3.30;2.57;;;;;;;2.43;100.00;99888.94;5037310;28;20500;-67
2024/01/24 03:22:42;;;;;;;4.63;2.97;;;;;;;2.13;100.00;99845.13;5043807;28;20053;-67
2024/01/24 03:25:08;;;;;;;3.50;2.67;;;;;;;2.40;100.00;99881.34;5041102;28;20643;-65
2024/01/24 03:27:34;;;;;;;3.87;2.10;;;;;;;2.28;100.00;99866.59;5033204;28;20512;-68
2024/01/24 03:29:59;;;;;;;3.67;2.73;;;;;;;2.36;100.00;99884.34;5038819;28;20299;-66
2024/01/24 03:32:25;;;;;;;4.40;2.37;;;;;;;2.28;100.00;99863.13;5032713;28;20041;-68
2024/01/24 03:34:55;;;;;;;4.50;3.23;;;;;;;2.40;100.00;99880.50;5033630;28;20175;-68
2024/01/24 03:37:20;;;;;;;4.13;2.50;;;;;;;2.38;100.00;99872.75;5042499;28;20033;-67
2024/01/24 03:39:46;;;;;;;5.90;2.67;;;;;;;2.45;100.00;99883.56;5033120;28;20266;-69
2024/01/24 03:42:11;;;;;;;4.93;2.83;;;;;;;2.33;100.00;99869.69;5039432;28;20045;-69
2024/01/24 03:44:37;;;;;;;3.80;2.53;;;;;;;2.36;100.00;99873.84;5039210;28;20130;-70
2024/01/24 03:47:02;;;;;;;5.90;2.70;;;;;;;2.38;100.00;99879.81;5036099;28;20042;-67
2024/01/24 03:49:29;;;;;;;3.43;2.70;;;;;;;2.14;100.00;99840.69;5043019;28;20178;-66
2024/01/24 03:51:55;;;;;;;4.60;3.00;;;;;;;2.38;100.00;99872.75;5046247;28;20045;-66
2024/01/24 03:54:22;;;;;;;4.27;2.97;;;;;;;2.40;100.00;99870.00;5048269;28;20282;-66
2024/01/24 03:56:47;;;;;;;3.33;3.03;;;;;;;2.41;100.00;99866.41;5022398;28;20037;-67
2024/01/24 03:59:13;;;;;;;6.63;2.57;;;;;;;2.40;100.00;99868.19;5046663;28;20705;-67
2024/01/24 04:01:38;;;;;;;5.03;2.70;;;;;;;2.39;100.00;99870.94;5043014;28;20045;-66
2024/01/24 04:04:04;;;;;;;6.07;2.50;;;;;;;2.32;100.00;99860.16;5041852;28;20057;-67
2024/01/24 04:06:29;;;;;;;3.33;2.97;;;;;;;2.34;100.00;99857.38;5044515;28;20051;-67
2024/01/24 04:08:55;;;;;;;6.87;2.70;;;;;;;2.20;100.00;99852.47;5040837;28;20124;-67
2024/01/24 04:11:20;;;;;;;4.33;3.30;;;;;;;2.20;100.00;99841.97;5042859;28;20111;-66
2024/01/24 04:13:52;;;;;;;5.60;3.00;;;;;;;2.26;100.00;99847.50;5042439;28;21757;-66
2024/01/24 04:16:17;;;;;;;5.43;3.43;;;;;;;2.34;100.00;99854.75;5044450;28;20036;-69
2024/01/24 04:18:43;;;;;;;3.50;2.90;;;;;;;2.28;100.00;99855.25;5039878;28;20297;-70
2024/01/24 04:21:08;;;;;;;4.60;3.37;;;;;;;2.38;100.00;99848.28;5044099;28;20060;-70
2024/01/24 04:23:34;;;;;;;5.43;3.33;;;;;;;1.38;100.00;99687.09;5037506;28;20041;-67
2024/01/24 04:26:03;;;;;;;4.63;2.70;;;;;;;2.24;100.00;99853.88;5041498;28;20045;-69
2024/01/24 04:28:28;;;;;;;6.37;2.87;;;;;;;2.20;100.00;99841.97;5041578;28;20041;-66
2024/01/24 04:30:54;;;;;;;4.57;3.00;;;;;;;2.07;100.00;99837.75;5046024;28;20327;-66
2024/01/24 04:33:19;;;;;;;3.53;2.57;;;;;;;2.14;100.00;99844.16;5047552;28;20061;-68
2024/01/24 04:35:45;;;;;;;6.67;3.70;;;;;;;2.09;100.00;99821.88;5040709;28;20051;-69
2024/01/24 04:38:10;;;;;;;4.13;2.80;;;;;;;2.00;100.00;99820.84;5041480;28;20504;-66
2024/01/24 04:40:36;;;;;;;5.63;4.50;;;;;;;2.11;100.00;99844.41;5039500;28;20095;-65
2024/01/24 04:43:01;;;;;;;10.10;3.77;;;;;;;2.13;100.00;99837.25;5043867;28;20211;-67
2024/01/24 04:45:27;;;;;;;5.10;3.37;;;;;;;2.20;100.00;99839.34;5035430;28;20416;-66
2024/01/24 04:47:52;;;;;;;10.80;2.60;;;;;;;2.08;100.00;99817.59;5037560;28;20143;-67
2024/01/24 04:50:18;;;;;;;3.07;2.77;;;;;;;2.17;100.00;99817.63;5044532;28;20038;-67
2024/01/24 04:52:43;;;;;;;8.13;3.33;;;;;;;2.02;100.00;99802.31;5025977;28;20661;-66
2024/01/24 04:55:12;;;;;;;4.80;2.77;;;;;;;2.15;100.00;99810.84;5040214;28;20129;-68
2024/01/24 04:57:38;;;;;;;5.18;3.70;;;;;;;2.26;100.00;99826.50;5024597;28;20037;-66
2024/01/24 05:00:07;;;;;;;5.87;3.13;;;;;;;2.27;100.00;99816.81;5040304;28;20041;-69
2024/01/24 05:02:33;;;;;;;6.53;3.58;;;;;;;2.20;100.00;99800.75;5035955;28;20280;-67
2024/01/24 05:04:59;;;;;;;4.40;3.10;;;;;;;2.38;100.00;99825.44;5035645;28;20048;-67
2024/01/24 05:07:24;;;;;;;3.60;2.90;;;;;;;2.36;100.00;99813.41;5044301;28;20280;-69
2024/01/24 05:09:50;;;;;;;5.13;3.53;;;;;;;2.35;100.00;99815.22;5041327;28;20043;-67
2024/01/24 05:12:15;;;;;;;4.40;3.70;;;;;;;2.38;100.00;99814.09;5044856;28;20408;-67
2024/01/24 05:14:41;;;;;;;5.80;2.90;;;;;;;2.30;100.00;99814.75;5040021;28;20447;-66
2024/01/24 05:17:08;;;;;;;7.60;3.70;;;;;;;2.09;100.00;99779.84;5040067;28;20040;-66
2024/01/24 05:19:34;;;;;;;4.33;2.87;;;;;;;2.16;100.00;99789.69;5039216;28;20456;-68
2024/01/24 05:21:59;;;;;;;3.73;2.73;;;;;;;2.25;100.00;99802.97;5042851;28;20385;-67
2024/01/24 05:24:24;;;;;;;3.80;2.90;;;;;;;2.10;100.00;99782.34;5045394;28;20094;-70
2024/01/24 05:26:50;;;;;;;5.77;3.30;;;;;;;2.26;100.00;99807.28;5040425;28;20453;-67
2024/01/24 05:29:15;;;;;;;6.17;4.87;;;;;;;2.23;100.00;99820.69;5046798;28;20143;-65
2024/01/24 05:31:41;;;;;;;5.93;4.00;;;;;;;2.13;100.00;99808.34;5042767;28;20052;-67
2024/01/24 05:34:08;;;;;;;4.47;3.27;;;;;;;2.16;100.00;99810.69;5041889;28;20459;-67
2024/01/24 05:36:34;;;;;;;3.93;3.17;;;;;;;2.05;100.00;99792.41;5040598;28;20481;-70
2024/01/24 05:38:59;;;;;;;5.40;3.67;;;;;;;1.86;100.00;99745.06;5038470;28;20881;-66
2024/01/24 05:41:25;;;;;;;5.27;3.03;;;;;;;2.11;100.00;99794.50;5072848;28;20282;-66
2024/01/24 05:43:50;;;;;;;3.33;3.03;;;;;;;2.07;100.00;99779.97;5038189;28;20124;-70
2024/01/24 05:46:16;;;;;;;3.30;2.80;;;;;;;2.23;100.00;99794.41;5042259;28;20089;-67
2024/01/24 05:48:41;;;;;;;8.63;3.90;;;;;;;2.13;100.00;99771.56;5041065;28;20067;-66
2024/01/24 05:51:07;;;;;;;5.03;2.93;;;;;;;2.10;100.00;99766.59;5040329;28;20505;-66
2024/01/24 05:53:33;;;;;;;3.97;3.10;;;;;;;2.23;100.00;99770.75;5039164;28;20064;-68
2024/01/24 05:55:58;;;;;;;4.23;2.93;;;;;;;2.12;100.00;99756.78;5041028;28;20040;-66
2024/01/24 05:58:24;;;;;;;5.93;3.67;;;;;;;2.26;100.00;99767.88;5036961;28;20068;-68
2024/01/24 06:00:50;;;;;;;4.53;3.37;;;;;;;2.16;100.00;99760.78;5039985;28;20037;-69
2024/01/24 06:03:15;;;;;;;7.03;3.13;;;;;;;2.07;100.00;99743.22;5042804;28;20052;-69
2024/01/24 06:05:40;;;;;;;6.70;3.40;;;;;;;2.13;100.00;99758.44;5043132;28;20036;-66
2024/01/24 06:08:06;;;;;;;6.00;3.30;;;;;;;2.02;100.00;99737.50;5042165;28;20139;-67
2024/01/24 06:10:33;;;;;;;5.23;2.83;;;;;;;2.21;100.00;99759.56;5042877;28;20348;-69
2024/01/24 06:12:58;;;;;;;6.70;3.60;;;;;;;2.13;100.00;99747.09;5041776;28;20504;-67
2024/01/24 06:15:24;;;;;;;5.47;3.03;;;;;;;2.24;100.00;99756.66;5040335;28;20278;-67
2024/01/24 06:17:51;;;;;;;6.83;3.90;;;;;;;2.11;100.00;99739.34;5040222;28;20497;-69
2024/01/24 06:20:16;;;;;;;3.93;3.27;;;;;;;2.20;100.00;99752.66;5042832;28;20051;-67
2024/01/24 06:22:42;;;;;;;5.00;3.97;;;;;;;2.25;100.00;99755.69;5034059;28;20279;-67
2024/01/24 06:25:08;;;;;;;7.37;3.87;;;;;;;2.23;100.00;99750.56;5040372;28;20041;-66
2024/01/24 06:27:35;;;;;;;4.87;3.87;;;;;;;2.27;100.00;99748.50;5042544;28;20555;-68
2024/01/24 06:30:00;;;;;;;4.10;3.00;;;;;;;2.28;100.00;99747.53;5036397;28;20045;-68
2024/01/24 06:32:26;;;;;;;8.20;4.27;;;;;;;2.00;100.00;99697.41;5039129;28;20280;-71
2024/01/24 06:34:51;;;;;;;3.67;3.27;;;;;;;2.34;100.00;99750.50;5052157;28;20029;-70
2024/01/24 06:37:17;;;;;;;3.87;3.13;;;;;;;2.34;100.00;99744.41;5046020;28;20075;-66
2024/01/24 06:39:42;;;;;;;5.93;3.60;;;;;;;1.56;100.00;99622.56;5036567;28;20048;-66
2024/01/24 06:42:08;;;;;;;5.07;3.17;;;;;;;2.23;100.00;99726.94;5036351;28;20063;-67
2024/01/24 06:44:33;;;;;;;4.67;3.70;;;;;;;2.31;100.00;99729.72;5033774;28;20033;-66
2024/01/24 06:47:00;;;;;;;5.53;2.73;;;;;;;2.39;100.00;99744.81;5039128;28;20063;-66
2024/01/24 06:49:25;;;;;;;3.07;2.77;;;;;;;2.33;100.00;99746.19;5035587;28;20306;-69
2024/01/24 06:51:51;;;;;;;3.53;2.97;;;;;;;2.25;100.00;99737.31;5039605;28;20566;-68
2024/01/24 06:54:19;;;;;;;5.10;2.93;;;;;;;1.93;100.00;99693.69;5040997;28;20041;-68
2024/01/24 06:56:45;;;;;;;7.05;3.30;;;;;;;2.05;100.00;99732.03;5036252;28;20159;-69
2024/01/24 06:59:11;;;;;;;5.40;3.53;;;;;;;2.16;100.00;99752.91;5041635;28;20128;-71
2024/01/24 07:01:36;;;;;;;4.57;3.00;;;;;;;2.14;100.00;99746.13;5036715;28;20052;-74
2024/01/24 07:04:03;;;;;;;3.43;3.00;;;;;;;2.16;100.00;99749.47;5036624;28;20280;-70
2024/01/24 07:06:29;;;;;;;5.13;3.63;;;;;;;2.11;100.00;99739.34;5029422;28;20068;-70
2024/01/24 07:08:56;;;;;;;5.03;3.63;;;;;;;2.23;100.00;99757.63;5037542;28;20303;-69
2024/01/24 07:11:21;;;;;;;8.80;3.70;;;;;;;1.98;100.00;99719.53;5039188;28;20139;-69
2024/01/24 07:13:47;;;;;;;4.17;3.20;;;;;;;2.09;100.00;99733.41;5034564;28;20374;-66
2024/01/24 07:16:12;;;;;;;4.97;3.67;;;;;;;2.12;100.00;99735.75;5036901;28;20032;-68
2024/01/24 07:18:39;;;;;;;5.50;3.00;;;;;;;2.27;100.00;99751.13;5034426;28;21661;-67
2024/01/24 07:21:06;;;;;;;6.80;3.63;;;;;;;2.23;100.00;99739.25;5033216;28;20049;-68
2024/01/24 07:23:32;;;;;;;9.40;4.27;;;;;;;2.23;100.00;99736.63;5033093;28;20288;-66
2024/01/24 07:25:58;;;;;;;9.53;4.00;;;;;;;2.09;100.00;99725.53;5033352;28;20327;-68
2024/01/24 07:28:24;;;;;;;4.17;3.73;;;;;;;2.28;100.00;99750.16;5033610;28;20308;-69
2024/01/24 07:30:49;;;;;;;6.47;4.40;;;;;;;2.12;100.00;99719.19;5037613;28;20037;-69
2024/01/24 07:33:15;;;;;;;6.83;3.53;;;;;;;2.30;100.00;99750.88;5038079;28;20048;-70
2024/01/24 07:35:41;;;;;;;6.87;4.37;;;;;;;2.17;100.00;99725.69;5035914;28;20535;-69
2024/01/24 07:38:06;;;;;;;5.83;4.43;;;;;;;2.14;100.00;99722.50;5046146;28;20076;-68
2024/01/24 07:40:32;;;;;;;6.80;4.60;;;;;;;2.09;100.00;99720.28;5043383;28;20319;-69
2024/01/24 07:42:58;;;;;;;8.00;4.57;;;;;;;1.74;100.00;99680.50;5040905;28;20048;-67
2024/01/24 07:45:23;;;;;;;4.73;4.10;;;;;;;2.16;100.00;99737.16;5035560;28;20037;-67
2024/01/24 07:47:50;;;;;;;6.73;4.40;;;;;;;2.17;100.00;99728.31;5038750;28;20037;-70
2024/01/24 07:50:15;;;;;;;4.27;3.70;;;;;;;2.22;100.00;99724.44;5033412;28;20046;-68
2024/01/24 07:52:41;;;;;;;5.00;4.10;;;;;;;2.14;100.00;99712.81;5040901;28;20284;-67
2024/01/24 07:55:07;;;;;;;7.00;4.40;;;;;;;2.06;100.00;99694.28;5029107;28;20087;-67
2024/01/24 07:57:32;;;;;;;6.17;4.83;;;;;;;2.15;100.00;99716.28;5042242;28;20123;-70
2024/01/24 07:59:58;;;;;;;6.03;4.73;;;;;;;2.17;100.00;99711.72;5041289;28;20060;-68
2024/01/24 08:02:23;;;;;;;7.67;4.03;;;;;;;2.32;100.00;99730.56;5035010;28;20065;-67
2024/01/24 08:04:49;;;;;;;5.10;3.90;;;;;;;2.25;100.00;99729.44;5032641;28;20045;-68
2024/01/24 08:07:15;;;;;;;4.70;4.20;;;;;;;2.31;100.00;99728.88;5039843;28;20439;-69
2024/01/24 08:09:40;;;;;;;9.10;3.90;;;;;;;2.35;100.00;99735.56;5036042;28;20037;-68
2024/01/24 08:12:06;;;;;;;6.60;3.90;;;;;;;2.33;100.00;99721.72;5034734;28;20033;-71
2024/01/24 08:14:31;;;;;;;6.90;4.17;;;;;;;2.45;100.00;99731.13;5030269;28;20116;-71
2024/01/24 08:17:05;;;;;;;4.10;3.37;;;;;;;2.09;100.00;99683.50;5041111;28;20042;-69
2024/01/24 08:19:34;;;;;;;3.60;3.30;;;;;;;2.44;100.00;99714.53;5059373;28;20044;-72
2024/01/24 08:22:00;;;;;;;4.60;3.58;;;;;;;2.32;100.00;99686.75;5054868;28;20307;-74
2024/01/24 08:24:25;;;;;;;3.87;3.47;;;;;;;2.35;100.00;99694.34;5034892;28;20038;-69
2024/01/24 08:26:52;;;;;;;4.23;3.80;;;;;;;2.48;100.00;99705.41;5063011;28;20055;-67
2024/01/24 08:29:18;;;;;;;3.53;3.23;;;;;;;2.51;100.00;99711.34;5064769;28;20098;-67
2024/01/24 08:31:44;;;;;;;3.83;3.30;;;;;;;2.50;100.00;99715.78;5062812;28;20287;-68
2024/01/24 08:34:09;;;;;;;3.97;3.10;;;;;;;2.48;100.00;99721.19;5046746;28;20672;-69
2024/01/24 08:36:35;;;;;;;6.03;3.87;;;;;;;2.40;100.00;99701.81;5044623;28;20049;-65
2024/01/24 08:39:03;;;;;;;5.57;3.17;;;;;;;2.47;100.00;99710.81;5046732;28;20037;-67
2024/01/24 08:41:28;;;;;;;3.87;3.30;;;;;;;2.32;100.00;99693.78;5053660;28;20068;-63
2024/01/24 08:43:57;;;;;;;5.70;3.30;;;;;;;2.36;100.00;99693.38;5052551;28;20323;-70
2024/01/24 08:46:22;;;;;;;3.33;3.00;;;;;;;2.47;100.00;99716.88;5059099;28;20033;-68
2024/01/24 08:48:48;;;;;;;3.93;2.83;;;;;;;2.40;100.00;99709.69;5039284;28;20045;-71
2024/01/24 08:51:13;;;;;;;9.00;3.83;;;;;;;2.39;100.00;99705.41;5039337;28;20056;-69
2024/01/24 08:53:39;;;;;;;5.60;3.53;;;;;;;2.44;100.00;99709.28;5043849;28;20088;-67
2024/01/24 08:56:05;;;;;;;3.73;3.27;;;;;;;2.43;100.00;99693.66;5045746;28;20532;-68
2024/01/24 08:58:30;;;;;;;4.20;3.80;;;;;;;2.58;100.00;99710.66;5041919;28;20048;-67
2024/01/24 09:00:56;;;;;;;4.07;3.57;;;;;;;2.54;100.00;99698.78;5042258;28;20044;-65
2024/01/24 09:03:21;;;;;;;4.23;3.37;;;;;;;2.29;100.00;99659.88;5051758;28;20044;-68
2024/01/24 09:05:46;;;;;;;4.37;3.43;;;;;;;2.51;100.00;99685.06;5046259;28;20043;-68
2024/01/24 09:08:12;;;;;;;5.10;4.17;;;;;;;2.49;100.00;99664.19;5046875;28;20041;-69
2024/01/24 09:10:37;;;;;;;4.57;3.70;;;;;;;2.41;100.00;99657.00;5052361;28;20028;-68
2024/01/24 09:13:03;;;;;;;5.63;3.40;;;;;;;2.37;100.00;99666.13;5049901;28;21163;-70
2024/01/24 09:15:29;;;;;;;7.50;4.20;;;;;;;2.54;100.00;99684.81;5042125;28;20049;-66
2024/01/24 09:17:54;;;;;;;5.33;3.40;;;;;;;2.49;100.00;99683.41;5044000;28;20069;-67
2024/01/24 09:20:20;;;;;;;5.97;4.13;;;;;;;2.42;100.00;99679.69;5047091;28;20202;-67
2024/01/24 09:22:45;;;;;;;6.27;4.27;;;;;;;2.53;100.00;99694.47;5043609;28;20035;-68
2024/01/24 09:25:11;;;;;;;5.73;4.57;;;;;;;2.57;100.00;99681.91;5040502;28;20091;-69
2024/01/24 09:27:37;;;;;;;5.17;3.97;;;;;;;2.44;100.00;99661.16;5046227;28;20044;-69
2024/01/24 09:30:03;;;;;;;9.90;4.70;;;;;;;2.63;100.00;99676.94;5038652;28;20485;-67
2024/01/24 09:32:29;;;;;;;11.37;4.20;;;;;;;2.63;100.00;99689.25;5049228;28;20025;-68
2024/01/24 09:34:54;;;;;;;7.40;4.83;;;;;;;2.42;100.00;99658.66;5051938;28;20306;-68
2024/01/24 09:37:20;;;;;;;5.23;3.97;;;;;;;2.51;100.00;99662.25;5051851;28;20121;-65
2024/01/24 09:39:47;;;;;;;4.87;3.37;;;;;;;2.43;100.00;99648.97;5041724;28;20052;-64
2024/01/24 09:42:25;;;;;;;4.80;4.03;;;;;;;2.59;100.00;99659.75;5055528;28;20040;-66
2024/01/24 09:44:51;;;;;;;4.60;3.40;;;;;;;2.59;100.00;99651.03;5060895;28;20294;-69
2024/01/24 09:47:18;;;;;;;6.73;4.03;;;;;;;2.73;100.00;99672.50;5061889;28;20045;-66
2024/01/24 09:49:44;;;;;;;4.23;2.73;;;;;;;2.66;100.00;99660.88;5056955;28;20299;-70
2024/01/24 09:52:12;;;;;;;3.27;2.87;;;;;;;2.59;100.00;99659.75;5057777;28;20336;-66
2024/01/24 09:54:38;;;;;;;4.18;3.17;;;;;;;2.48;100.00;99650.22;5059363;28;20059;-67
2024/01/24 09:57:06;;;;;;;4.33;3.70;;;;;;;2.52;100.00;99647.31;5054341;28;20045;-67
2024/01/24 09:59:31;;;;;;;3.97;3.03;;;;;;;2.63;100.00;99660.34;5051042;28;20057;-68
2024/01/24 10:01:58;;;;;;;4.93;4.33;;;;;;;2.51;100.00;99650.91;5047804;28;20326;-66
2024/01/24 10:04:25;;;;;;;5.40;3.50;;;;;;;2.31;100.00;99635.13;5050613;28;20104;-71
2024/01/24 10:06:52;;;;;;;4.57;2.93;;;;;;;2.51;100.00;99666.69;5046421;28;20362;-69
2024/01/24 10:09:19;;;;;;;3.53;2.97;;;;;;;2.38;100.00;99651.19;5049302;28;20303;-75
2024/01/24 10:11:44;;;;;;;4.10;3.73;;;;;;;2.34;100.00;99642.75;5051833;28;20339;-72
2024/01/24 10:14:12;;;;;;;4.20;3.40;;;;;;;2.36;100.00;99634.75;5050465;28;20651;-74
2024/01/24 10:16:40;;;;;;;3.40;3.03;;;;;;;2.47;100.00;99658.25;5046800;28;20565;-73
2024/01/24 10:19:06;;;;;;;6.35;3.78;;;;;;;2.36;100.00;99629.50;5049229;28;20299;-72
2024/01/24 10:21:31;;;;;;;5.43;3.50;;;;;;;2.46;100.00;99653.97;5050373;28;20041;-73
2024/01/24 10:23:59;;;;;;;7.30;3.70;;;;;;;2.32;100.00;99621.06;5049820;28;20440;-74
2024/01/24 10:26:26;;;;;;;5.43;3.40;;;;;;;2.49;100.00;99649.25;5027490;28;20033;-72
2024/01/24 10:28:53;;;;;;;9.87;4.37;;;;;;;2.39;100.00;99622.16;5048487;28;20312;-71
2024/01/24 10:31:19;;;;;;;7.20;3.63;;;;;;;2.47;100.00;99643.31;5049954;28;20610;-68
2024/01/24 10:33:48;;;;;;;5.43;3.70;;;;;;;2.44;100.00;99633.06;5045600;28;20468;-67
2024/01/24 10:36:14;;;;;;;5.10;3.67;;;;;;;2.41;100.00;99624.66;5048205;28;20275;-69
2024/01/24 10:38:47;;;;;;;4.47;3.27;;;;;;;2.34;100.00;99619.13;5051144;28;20294;-75
2024/01/24 10:41:20;;;;;;;3.50;3.13;;;;;;;2.47;100.00;99638.06;5048985;28;20291;-70
2024/01/24 10:44:17;;;;;;;;;;;;;;;;;;;;;
2024/01/24 10:46:47;;;;;;;6.30;4.13;;;;;;;1.67;100.00;99508.75;5045118;28;20419;-72
2024/01/24 10:49:13;;;;;;;4.77;3.43;;;;;;;1.23;100.00;99443.53;5040657;28;20306;-70
2024/01/24 10:51:43;;;;;;;4.97;3.13;;;;;;;2.43;100.00;99633.22;5048905;28;20362;-72
2024/01/24 10:54:15;;;;;;;3.73;3.27;;;;;;;1.79;100.00;99534.75;5017464;28;20647;-74
2024/01/24 10:56:46;;;;;;;3.67;3.20;;;;;;;2.47;100.00;99629.34;5040377;28;20937;-66
2024/01/24 10:59:13;;;;;;;6.80;4.00;;;;;;;2.40;100.00;99617.72;5042152;28;20292;-68
2024/01/24 11:01:39;;;;;;;8.67;3.77;;;;;;;2.48;100.00;99631.00;5039459;28;20298;-68
2024/01/24 11:04:06;;;;;;;4.37;3.93;;;;;;;2.21;100.00;99571.25;5038032;28;20295;-66
2024/01/24 11:06:33;;;;;;;4.87;2.80;;;;;;;2.52;100.00;99621.88;5039557;28;20076;-66
2024/01/24 11:09:23;;;;;;;3.23;2.60;;;;;;;1.57;100.00;99469.38;5037957;28;20310;-66
2024/01/24 11:11:53;;;;;;;6.37;3.10;;;;;;;2.46;100.00;99620.63;5036239;28;20284;-68
2024/01/24 11:14:33;;;;;;;3.27;2.70;;;;;;;2.38;100.00;99603.91;5039643;28;20298;-66
2024/01/24 11:16:59;;;;;;;3.07;2.10;;;;;;;2.39;100.00;99610.81;5047396;28;20419;-67
2024/01/24 11:19:26;;;;;;;3.27;2.57;;;;;;;1.33;100.00;99453.19;5048977;28;20296;-69
2024/01/24 11:21:53;;;;;;;3.33;2.87;;;;;;;2.28;100.00;99600.41;5048390;28;20037;-73
2024/01/24 11:24:54;;;;;;;4.73;2.83;;;;;;;2.45;100.00;99618.13;5049694;28;20315;-69
2024/01/24 11:27:36;;;;;;;6.67;3.60;;;;;;;2.37;100.00;99610.13;5029387;28;20874;-72
2024/01/24 11:30:23;;;;;;;3.30;2.70;;;;;;;2.46;100.00;99623.25;5040746;28;20295;-74